Annandale, Minnesota
Current Conditions -  °F | °C
As of 5:35 AM on Tuesday 21 Oct 2014 (Local Time) from KMGG Reporting Station
Haze Haze  
Wind Chill: 35°   Ceiling: 700
Heat Index: 35°   Visibility: 1.7mi
Dew Point: 35°   Wind: 0mph
Humidity: 99%   Direction: NA
Pressure: 30.16"   Gusts: NA
Location:  45.26°N, 94.12°W
Report Text: KMGG 211035Z AUTO 00000KT 1 3/4SM BR VV007 02/02 A3016 RMK AO2 T00190018
Loading
Personal Weather Stations






























Interactive Weather Map New forecast layout! Learn more

10-Day Weather Forecast

Advertisements
Track Severe Weather on mobile